createdAt,value
2024-04-09T00:01:46.168Z,96959.16
2024-04-09T00:06:52.047Z,96966.78
2024-04-09T00:12:00.388Z,96895.25
2024-04-09T00:17:06.454Z,96971.09
2024-04-09T00:22:11.686Z,96845.25
2024-04-09T00:27:19.500Z,96975.03
2024-04-09T00:32:24.766Z,96977.06
2024-04-09T00:37:30.214Z,96834.19
2024-04-09T00:42:38.165Z,96968.53
2024-04-09T00:47:46.545Z,96931.09
2024-04-09T00:52:56.366Z,96959.16
2024-04-09T00:58:07.359Z,96972.75
2024-04-09T01:03:13.204Z,96897.94
2024-04-09T01:08:18.664Z,96954.09
2024-04-09T01:13:26.501Z,96946.66
2024-04-09T01:18:31.728Z,96948.91
2024-04-09T01:23:40.428Z,96870.47
2024-04-09T01:28:47.547Z,96947.28
2024-04-09T01:33:53.628Z,96934.56
2024-04-09T01:39:01.749Z,96857.03
2024-04-09T01:44:07.951Z,96834.97
2024-04-09T01:49:13.352Z,96953.00
2024-04-09T01:54:21.234Z,96897.94
2024-04-09T01:59:26.700Z,96963.00
2024-04-09T02:04:32.053Z,96875.28
2024-04-09T02:09:40.061Z,96966.06
2024-04-09T02:14:45.297Z,96959.38
2024-04-09T02:19:50.438Z,96914.53
2024-04-09T02:24:58.302Z,96723.03
2024-04-09T02:30:04.755Z,96926.06
2024-04-09T02:35:13.249Z,96981.84
2024-04-09T02:40:21.168Z,96976.72
2024-04-09T02:45:27.362Z,96970.00
2024-04-09T02:50:32.547Z,96911.00
2024-04-09T02:55:40.430Z,96984.69
2024-04-09T03:00:46.163Z,96939.63
2024-04-09T03:05:51.856Z,97030.00
2024-04-09T03:10:59.746Z,97024.81
2024-04-09T03:16:04.986Z,96987.19
2024-04-09T03:21:10.234Z,97011.53
2024-04-09T03:26:18.393Z,96930.81
2024-04-09T03:31:23.747Z,97021.28
2024-04-09T03:36:28.865Z,97045.72
2024-04-09T03:41:36.761Z,96990.16
2024-04-09T03:46:42.288Z,96991.03
2024-04-09T03:51:47.870Z,96943.38
2024-04-09T03:56:56.027Z,96908.47
2024-04-09T04:02:01.252Z,97082.63
2024-04-09T04:07:06.419Z,97064.47
2024-04-09T04:12:14.373Z,97097.13
2024-04-09T04:17:19.659Z,97088.75
2024-04-09T04:22:24.980Z,96996.28
2024-04-09T04:27:32.816Z,97018.06
2024-04-09T04:32:38.069Z,97146.75
2024-04-09T04:37:43.234Z,97096.84
2024-04-09T04:42:51.055Z,97100.09
2024-04-09T04:47:56.436Z,97125.44
2024-04-09T04:53:02.415Z,97206.66
2024-04-09T04:58:10.610Z,97210.75
2024-04-09T05:03:16.016Z,97106.66
2024-04-09T05:08:21.685Z,97176.75
2024-04-09T05:13:29.660Z,97243.06
2024-04-09T05:18:35.047Z,97242.81
2024-04-09T05:23:40.269Z,97215.91
2024-04-09T05:28:48.091Z,97222.59
2024-04-09T05:33:53.308Z,97293.06
2024-04-09T05:38:58.489Z,97308.28
2024-04-09T05:44:06.691Z,97315.38
2024-04-09T05:49:12.085Z,97278.78
2024-04-09T05:54:21.225Z,97278.22
2024-04-09T05:59:31.533Z,97339.25
2024-04-09T06:04:36.751Z,97261.28
2024-04-09T06:09:42.805Z,97372.91
2024-04-09T06:14:50.695Z,97351.09
2024-04-09T06:19:58.702Z,97382.13
2024-04-09T06:25:04.468Z,97346.69
2024-04-09T06:30:14.164Z,97389.50
2024-04-09T06:35:20.251Z,97285.09
2024-04-09T06:40:25.593Z,97281.50
2024-04-09T06:45:33.822Z,97343.34
2024-04-09T06:50:39.154Z,97418.00
2024-04-09T06:55:45.319Z,97356.81
2024-04-09T07:00:54.265Z,97453.34
2024-04-09T07:05:59.435Z,97467.94
2024-04-09T07:11:05.612Z,97471.13
2024-04-09T07:16:13.725Z,97441.63
2024-04-09T07:21:19.122Z,97480.44
2024-04-09T07:26:24.345Z,97492.34
2024-04-09T07:31:32.416Z,97439.06
2024-04-09T07:36:38.879Z,97302.41
2024-04-09T07:41:44.272Z,97488.84
2024-04-09T07:46:53.448Z,97570.34
2024-04-09T07:51:58.802Z,97496.41
2024-04-09T07:57:05.263Z,97513.75
2024-04-09T08:02:13.330Z,97560.63
2024-04-09T08:07:18.801Z,97648.22
2024-04-09T08:12:25.305Z,97579.97
2024-04-09T08:17:33.425Z,97675.03
2024-04-09T08:22:38.830Z,97721.81
2024-04-09T08:27:44.123Z,97672.16
2024-04-09T08:32:53.191Z,97679.28
2024-04-09T08:37:59.080Z,97341.56
2024-04-09T08:43:04.686Z,97739.13
2024-04-09T08:48:15.632Z,97712.91
2024-04-09T08:53:21.851Z,97843.31
2024-04-09T08:58:27.293Z,97857.38
2024-04-09T09:03:35.498Z,97868.50
2024-04-09T09:08:44.775Z,97684.94
2024-04-09T09:13:50.159Z,97790.38
2024-04-09T09:19:09.514Z,97858.16
2024-04-09T09:24:14.760Z,97856.38
2024-04-09T09:29:20.015Z,97707.38
2024-04-09T09:34:36.123Z,97912.84
2024-04-09T09:39:47.344Z,97921.53
2024-04-09T09:44:54.391Z,97706.78
2024-04-09T09:50:10.912Z,97910.00
2024-04-09T09:55:23.269Z,97953.41
2024-04-09T10:00:30.418Z,97950.50
2024-04-09T10:05:38.824Z,97927.88
2024-04-09T10:10:46.339Z,97971.91
2024-04-09T10:15:51.993Z,98015.75
2024-04-09T10:20:59.851Z,98020.97
2024-04-09T10:26:07.137Z,98036.81
2024-04-09T10:31:14.777Z,98031.47
2024-04-09T10:36:23.604Z,97945.75
2024-04-09T10:41:29.167Z,98053.59
2024-04-09T10:46:34.358Z,98039.16
2024-04-09T10:51:42.226Z,97930.63
2024-04-09T10:56:47.540Z,98053.22
2024-04-09T11:01:53.969Z,98035.22
2024-04-09T11:07:02.170Z,98070.13
2024-04-09T11:12:08.870Z,98099.41
2024-04-09T11:17:19.873Z,97778.53
2024-04-09T11:22:27.628Z,98008.81
2024-04-09T11:27:33.079Z,98128.66
2024-04-09T11:32:39.314Z,98134.41
2024-04-09T11:37:53.092Z,98132.47
2024-04-09T11:43:00.156Z,98140.09
2024-04-09T11:48:06.264Z,98153.59
2024-04-09T11:53:20.081Z,98143.91
2024-04-09T11:58:26.185Z,98164.19
2024-04-09T12:03:31.760Z,98145.16
2024-04-09T12:08:39.565Z,97834.59
2024-04-09T12:13:44.694Z,98180.47
2024-04-09T12:18:50.141Z,98187.06
2024-04-09T12:23:58.015Z,98180.69
2024-04-09T12:29:03.451Z,98183.81
2024-04-09T12:34:08.912Z,98107.59
2024-04-09T12:39:17.098Z,98032.53
2024-04-09T12:44:22.306Z,98163.28
2024-04-09T12:49:38.160Z,98172.09
2024-04-09T12:54:52.134Z,97929.09
2024-04-09T13:00:13.433Z,98110.50
2024-04-09T13:05:24.170Z,98187.00
2024-04-09T13:10:34.279Z,98154.47
2024-04-09T13:20:47.700Z,98158.19
2024-04-09T13:25:56.119Z,98184.16
2024-04-09T13:31:01.469Z,98187.66
2024-04-09T13:36:07.265Z,98189.56
2024-04-09T13:41:15.027Z,98203.66
2024-04-09T13:46:20.895Z,98040.50
2024-04-09T13:51:26.157Z,98192.50
2024-04-09T13:56:33.897Z,98189.66
2024-04-09T14:01:39.398Z,98136.59
2024-04-09T14:06:44.625Z,98071.63
2024-04-09T14:11:52.566Z,98211.22
2024-04-09T14:16:57.885Z,98176.81
2024-04-09T14:22:04.270Z,98222.00
2024-04-09T14:27:12.559Z,98101.66
2024-04-09T14:32:18.329Z,98190.09
2024-04-09T14:37:24.989Z,98244.78
2024-04-09T14:42:32.753Z,98196.31
2024-04-09T14:47:38.091Z,98214.13
2024-04-09T14:52:43.762Z,98251.41
2024-04-09T14:57:51.559Z,98147.06
2024-04-09T15:02:56.716Z,98246.66
2024-04-09T15:08:02.064Z,98229.03
2024-04-09T15:13:11.421Z,98181.00
2024-04-09T15:18:16.814Z,98222.81
2024-04-09T15:23:22.350Z,98133.00
2024-04-09T15:28:30.229Z,98239.78
2024-04-09T15:33:35.489Z,98211.66
2024-04-09T15:38:41.312Z,98247.47
2024-04-09T15:43:50.637Z,98248.50
2024-04-09T15:48:56.204Z,98072.97
2024-04-09T15:54:01.998Z,98247.69
2024-04-09T15:59:10.000Z,98241.06
2024-04-09T16:04:15.667Z,98250.56
2024-04-09T16:09:21.533Z,98247.06
2024-04-09T16:14:29.850Z,98252.63
2024-04-09T16:19:35.287Z,98068.44
2024-04-09T16:24:40.432Z,98270.47
2024-04-09T16:29:48.343Z,98204.59
2024-04-09T16:34:53.608Z,98090.31
2024-04-09T16:39:58.797Z,98292.88
2024-04-09T16:45:07.260Z,98228.22
2024-04-09T16:50:13.850Z,98269.44
2024-04-09T16:55:19.328Z,98306.72
2024-04-09T17:00:27.095Z,98308.81
2024-04-09T17:05:32.660Z,98311.09
2024-04-09T17:10:37.889Z,98214.50
2024-04-09T17:15:45.973Z,98335.53
2024-04-09T17:20:51.588Z,98327.63
2024-04-09T17:26:03.409Z,98352.31
2024-04-09T17:31:11.355Z,98314.13
2024-04-09T17:36:16.600Z,98297.88
2024-04-09T17:41:21.899Z,98352.81
2024-04-09T17:46:29.906Z,98365.28
2024-04-09T17:51:35.275Z,98312.97
2024-04-09T17:56:41.549Z,98342.78
2024-04-09T18:01:49.485Z,98324.53
2024-04-09T18:06:55.919Z,98358.13
2024-04-09T18:12:01.544Z,98288.16
2024-04-09T18:17:10.112Z,98329.78
2024-04-09T18:22:15.439Z,98424.75
2024-04-09T18:27:20.854Z,98425.09
2024-04-09T18:32:31.639Z,98188.34
2024-04-09T18:37:39.420Z,98443.38
2024-04-09T18:42:44.716Z,98457.00
2024-04-09T18:47:52.814Z,98394.25
2024-04-09T18:52:58.103Z,98392.72
2024-04-09T18:58:04.111Z,98146.34
2024-04-09T19:03:12.644Z,98472.66
2024-04-09T19:08:18.010Z,98472.53
2024-04-09T19:13:23.319Z,98348.06
2024-04-09T19:18:31.446Z,98109.97
2024-04-09T19:23:37.072Z,98309.03
2024-04-09T19:28:42.618Z,98514.03
2024-04-09T19:33:50.796Z,98373.00
2024-04-09T19:38:56.450Z,98396.13
2024-04-09T19:44:09.898Z,98511.53
2024-04-09T19:49:26.402Z,98515.31
2024-04-09T19:54:31.723Z,98176.44
2024-04-09T19:59:39.581Z,98490.00
2024-04-09T20:04:47.757Z,98447.53
2024-04-09T20:09:53.091Z,98472.34
2024-04-09T20:14:58.248Z,98529.03
2024-04-09T20:20:07.710Z,98530.31
2024-04-09T20:25:12.938Z,98463.28
2024-04-09T20:30:18.280Z,98533.66
2024-04-09T20:35:36.190Z,98506.47
2024-04-09T20:40:58.101Z,98554.09
2024-04-09T20:46:04.213Z,98563.72
2024-04-09T20:51:12.011Z,98438.59
2024-04-09T20:56:17.515Z,98566.16
2024-04-09T21:01:23.152Z,98566.53
2024-04-09T21:06:30.976Z,98571.97
2024-04-09T21:11:36.762Z,98538.34
2024-04-09T21:16:42.147Z,98576.38
2024-04-09T21:21:50.024Z,98575.09
2024-04-09T21:26:55.453Z,98602.78
2024-04-09T21:32:00.631Z,98620.50
2024-04-09T21:37:08.546Z,98568.88
2024-04-09T21:42:13.687Z,98632.78
2024-04-09T21:47:19.132Z,98544.22
2024-04-09T21:52:28.715Z,98638.72
2024-04-09T21:57:34.091Z,98641.16
2024-04-09T22:02:39.574Z,98612.44
2024-04-09T22:07:47.984Z,98615.41
2024-04-09T22:13:01.637Z,98664.63
2024-04-09T22:18:07.508Z,98662.88
2024-04-09T22:23:16.782Z,98631.88
2024-04-09T22:28:22.174Z,98548.16
2024-04-09T22:33:27.990Z,98658.44
2024-04-09T22:38:35.981Z,98639.81
2024-04-09T22:43:41.261Z,98637.72
2024-04-09T22:48:47.877Z,98678.16
2024-04-09T22:53:58.395Z,98642.44
2024-04-09T22:59:03.583Z,98684.28
2024-04-09T23:04:08.819Z,98687.69
2024-04-09T23:09:20.679Z,98692.88
2024-04-09T23:14:25.928Z,98701.03
2024-04-09T23:19:31.272Z,98697.03
2024-04-09T23:24:39.067Z,98658.91
2024-04-09T23:29:44.431Z,98613.00
2024-04-09T23:34:49.567Z,98646.28
2024-04-09T23:39:57.424Z,98387.31
2024-04-09T23:45:03.121Z,98553.03
2024-04-09T23:50:08.780Z,98714.41
2024-04-09T23:55:16.910Z,98699.59
